Time;durP1;ratioP1;P1;durP2;ratioP2;P2;SDS_P1;SDS_P2;PMS_P1;PMS_P2;Temp;Humidity;BMP_temperature;BMP_pressure;BME280_temperature;BME280_humidity;BME280_pressure;Samples;Min_cycle;Max_cycle;Signal;HPM_P1;HPM_P2
2021/06/17 00:00:37;;;;;;;5.30;4.90;;;21.70;84.10;;;;;;4883755;29;20482;-83
2021/06/17 00:03:05;;;;;;;7.10;6.50;;;21.60;84.10;;;;;;4883265;29;20476;-82
2021/06/17 00:05:34;;;;;;;7.20;6.60;;;21.60;84.60;;;;;;4884225;29;20471;-83
2021/06/17 00:08:03;;;;;;;7.10;6.60;;;21.60;85.10;;;;;;4883831;29;20859;-83
2021/06/17 00:10:32;;;;;;;7.03;6.43;;;21.60;85.80;;;;;;4883933;29;20495;-81
2021/06/17 00:13:01;;;;;;;6.67;6.17;;;21.50;86.40;;;;;;4883305;29;20462;-83
2021/06/17 00:15:29;;;;;;;6.43;5.83;;;21.50;87.20;;;;;;4883565;29;20459;-83
2021/06/17 00:17:57;;;;;;;6.03;5.63;;;21.50;87.60;;;;;;4883613;29;20459;-83
2021/06/17 00:20:25;;;;;;;6.67;5.70;;;21.40;88.50;;;;;;4883069;29;20490;-83
2021/06/17 00:22:53;;;;;;;7.27;6.67;;;21.40;88.80;;;;;;4883563;29;20464;-83
2021/06/17 00:25:22;;;;;;;5.77;5.27;;;21.40;89.20;;;;;;4883620;29;20981;-82
2021/06/17 00:27:49;;;;;;;7.20;6.30;;;21.30;89.50;;;;;;4883174;29;20496;-83
2021/06/17 00:30:16;;;;;;;6.50;6.00;;;21.30;89.70;;;;;;4883407;29;20475;-83
2021/06/17 00:32:43;;;;;;;5.90;5.50;;;21.30;89.80;;;;;;4883465;29;20461;-82
2021/06/17 00:35:12;;;;;;;6.20;5.40;;;21.20;90.00;;;;;;4883144;29;20519;-83
2021/06/17 00:37:39;;;;;;;5.23;4.93;;;21.20;90.10;;;;;;4883591;29;20451;-83
2021/06/17 00:40:09;;;;;;;5.73;5.33;;;21.10;90.10;;;;;;4883078;29;20479;-83
2021/06/17 00:42:38;;;;;;;7.57;6.97;;;21.10;90.40;;;;;;4883641;29;20469;-83
2021/06/17 00:45:08;;;;;;;7.30;6.60;;;21.10;90.90;;;;;;4888961;29;20457;-81
2021/06/17 00:47:34;;;;;;;7.57;6.97;;;21.00;91.50;;;;;;4889539;29;20494;-82
2021/06/17 00:50:02;;;;;;;8.17;7.43;;;21.00;91.80;;;;;;4884453;29;20485;-83
2021/06/17 00:52:29;;;;;;;6.43;6.03;;;20.90;92.00;;;;;;4883029;29;20451;-83
2021/06/17 00:54:58;;;;;;;8.67;6.90;;;20.80;92.30;;;;;;4883220;29;20469;-83
2021/06/17 00:57:24;;;;;;;6.63;6.13;;;20.80;92.50;;;;;;4882524;29;20462;-83
2021/06/17 00:59:53;;;;;;;7.10;6.50;;;20.80;92.70;;;;;;4883064;29;20486;-82
2021/06/17 01:02:19;;;;;;;7.10;6.60;;;20.70;92.70;;;;;;4882873;29;20490;-84
2021/06/17 01:04:46;;;;;;;6.50;6.00;;;20.70;92.80;;;;;;4883033;29;20484;-83
2021/06/17 01:07:24;;;;;;;5.77;5.30;;;20.60;92.90;;;;;;4882660;29;20500;-83
2021/06/17 01:10:02;;;;;;;7.43;6.63;;;20.60;93.00;;;;;;4883163;29;20487;-83
2021/06/17 01:12:42;;;;;;;7.23;6.73;;;20.50;93.30;;;;;;4882074;29;20461;-82
2021/06/17 01:15:15;;;;;;;6.20;5.77;;;20.50;93.60;;;;;;4866200;29;20929;-83
2021/06/17 01:17:46;;;;;;;7.40;6.70;;;20.50;94.10;;;;;;4882846;29;20443;-83
2021/06/17 01:20:19;;;;;;;7.30;6.80;;;20.40;94.30;;;;;;4882389;29;21000;-83
2021/06/17 01:22:51;;;;;;;7.00;6.50;;;20.40;94.60;;;;;;4882660;29;20454;-83
2021/06/17 01:25:37;;;;;;;7.20;6.60;;;20.30;94.70;;;;;;4882767;29;20449;-83
2021/06/17 01:28:10;;;;;;;7.33;6.63;;;20.30;94.80;;;;;;4882161;29;20473;-83
2021/06/17 01:30:45;;;;;;;7.53;6.93;;;20.30;95.00;;;;;;4882367;29;20864;-82
2021/06/17 01:33:12;;;;;;;7.50;6.80;;;20.30;95.20;;;;;;4881914;29;20449;-82
2021/06/17 01:35:44;;;;;;;7.47;7.00;;;20.20;95.40;;;;;;4882576;29;20468;-83
2021/06/17 01:38:14;;;;;;;6.83;6.20;;;20.20;95.60;;;;;;4882478;29;20442;-83
2021/06/17 01:40:41;;;;;;;7.37;6.57;;;20.20;95.80;;;;;;4882357;29;20476;-83
2021/06/17 01:43:10;;;;;;;5.73;5.33;;;20.10;95.60;;;;;;4881692;29;20464;-83
2021/06/17 01:45:37;;;;;;;6.40;5.93;;;20.10;95.60;;;;;;4881888;29;20461;-84
2021/06/17 01:48:07;;;;;;;6.97;6.20;;;20.10;95.50;;;;;;4882023;29;20489;-83
2021/06/17 01:50:35;;;;;;;6.07;5.57;;;20.00;95.40;;;;;;4882027;29;20488;-83
2021/06/17 01:53:02;;;;;;;7.40;6.70;;;20.00;95.30;;;;;;4886927;29;20464;-86
2021/06/17 01:55:31;;;;;;;6.93;6.43;;;20.00;95.20;;;;;;4887879;29;21062;-84
2021/06/17 01:58:02;;;;;;;6.33;5.83;;;20.00;95.40;;;;;;4887654;29;20462;-85
2021/06/17 02:00:32;;;;;;;7.43;6.63;;;20.00;95.80;;;;;;4888394;29;20492;-84
2021/06/17 02:03:00;;;;;;;7.40;6.80;;;19.90;96.00;;;;;;4887699;29;20475;-85
2021/06/17 02:05:28;;;;;;;6.20;5.80;;;19.90;96.30;;;;;;4887498;29;20467;-84
2021/06/17 02:07:58;;;;;;;7.40;6.80;;;19.90;96.40;;;;;;4887888;29;20497;-83
2021/06/17 02:10:26;;;;;;;8.20;7.50;;;19.80;96.40;;;;;;4887776;29;20481;-84
2021/06/17 02:12:53;;;;;;;6.30;5.87;;;19.80;96.70;;;;;;4887576;29;20462;-84
2021/06/17 02:15:22;;;;;;;7.00;6.50;;;19.80;96.70;;;;;;4887671;29;20473;-85
2021/06/17 02:17:52;;;;;;;7.43;6.80;;;19.70;96.70;;;;;;4887059;29;20528;-86
2021/06/17 02:20:19;;;;;;;6.77;6.23;;;19.70;96.80;;;;;;4887592;29;20578;-86
2021/06/17 02:22:48;;;;;;;7.07;6.33;;;19.70;96.90;;;;;;4887532;29;20508;-86
2021/06/17 02:25:17;;;;;;;7.53;6.90;;;19.70;97.10;;;;;;4888195;29;20998;-85
2021/06/17 02:27:46;;;;;;;8.40;7.70;;;19.70;97.20;;;;;;4888068;29;20496;-85
2021/06/17 02:30:16;;;;;;;8.13;7.33;;;19.60;97.30;;;;;;4888007;29;20563;-85
2021/06/17 02:32:48;;;;;;;7.57;6.90;;;19.60;97.40;;;;;;4887796;29;20481;-85
2021/06/17 02:35:19;;;;;;;8.27;7.57;;;19.60;97.60;;;;;;4888402;29;20467;-85
2021/06/17 02:37:51;;;;;;;8.00;7.47;;;19.60;97.90;;;;;;4887774;29;20448;-85
2021/06/17 02:40:19;;;;;;;7.70;7.20;;;19.60;98.00;;;;;;4888249;29;20471;-85
2021/06/17 02:42:47;;;;;;;7.80;7.20;;;19.50;98.10;;;;;;4887592;29;20478;-85
2021/06/17 02:45:15;;;;;;;6.53;6.03;;;19.50;98.20;;;;;;4887634;29;20467;-85
2021/06/17 02:47:42;;;;;;;7.43;6.70;;;19.40;98.40;;;;;;4887401;29;20492;-84
2021/06/17 02:50:10;;;;;;;7.23;6.63;;;19.40;98.60;;;;;;4888020;29;21006;-85
2021/06/17 02:52:41;;;;;;;7.73;7.03;;;19.40;98.80;;;;;;4887790;29;20473;-86
2021/06/17 02:55:09;;;;;;;6.63;6.23;;;19.40;98.90;;;;;;4886952;29;20513;-85
2021/06/17 02:57:56;;;;;;;7.00;6.50;;;19.40;99.00;;;;;;4886962;29;20464;-85
2021/06/17 03:00:28;;;;;;;7.10;6.50;;;19.40;99.00;;;;;;4887915;29;20472;-86
2021/06/17 03:03:04;;;;;;;7.17;6.60;;;19.30;98.90;;;;;;4887577;29;20850;-85
2021/06/17 03:05:36;;;;;;;6.90;6.40;;;19.30;99.00;;;;;;4887670;29;20947;-85
2021/06/17 03:08:12;;;;;;;7.00;6.33;;;19.30;99.20;;;;;;4887685;29;20723;-85
2021/06/17 03:10:40;;;;;;;7.30;6.60;;;19.30;99.40;;;;;;4888283;29;20535;-85
2021/06/17 03:13:09;;;;;;;7.60;6.90;;;19.30;99.40;;;;;;4888120;29;20459;-85
2021/06/17 03:15:39;;;;;;;7.93;6.97;;;19.30;99.40;;;;;;4887872;29;20419;-86
2021/06/17 03:18:08;;;;;;;6.97;6.57;;;19.20;99.30;;;;;;4887544;29;20453;-84
2021/06/17 03:20:39;;;;;;;6.53;6.03;;;19.20;99.30;;;;;;4888257;29;20483;-86
2021/06/17 03:23:17;;;;;;;9.47;6.80;;;19.10;99.40;;;;;;4887871;29;20484;-86
2021/06/17 03:25:48;;;;;;;6.73;6.17;;;19.10;99.60;;;;;;4888914;29;20456;-85
2021/06/17 03:28:17;;;;;;;6.17;5.77;;;19.10;99.70;;;;;;4896672;29;20462;-82
2021/06/17 03:30:47;;;;;;;7.23;6.00;;;19.10;99.70;;;;;;4902398;29;20489;-81
2021/06/17 03:33:17;;;;;;;7.03;6.40;;;19.10;99.80;;;;;;4902763;29;20471;-80
2021/06/17 03:35:45;;;;;;;6.90;6.40;;;19.10;99.90;;;;;;4902928;29;20525;-80
2021/06/17 03:38:15;;;;;;;6.03;5.43;;;19.10;99.80;;;;;;4902865;29;20530;-80
2021/06/17 03:40:43;;;;;;;6.70;6.10;;;19.10;99.70;;;;;;4902788;29;20483;-80
2021/06/17 03:43:11;;;;;;;5.60;5.20;;;19.10;99.50;;;;;;4902932;29;20507;-80
2021/06/17 03:45:40;;;;;;;6.53;5.90;;;19.10;99.50;;;;;;4903023;29;20448;-81
2021/06/17 03:48:08;;;;;;;6.87;6.37;;;19.10;99.30;;;;;;4902859;29;20497;-80
2021/06/17 03:50:36;;;;;;;7.10;6.50;;;19.10;99.10;;;;;;4902767;29;20486;-81
2021/06/17 03:53:03;;;;;;;6.97;6.47;;;19.10;99.00;;;;;;4902582;29;20446;-81
2021/06/17 03:55:35;;;;;;;6.93;6.33;;;19.10;98.90;;;;;;4902960;29;20428;-80
2021/06/17 03:58:02;;;;;;;7.33;6.73;;;19.10;99.00;;;;;;4902828;29;20448;-81
2021/06/17 04:00:31;;;;;;;6.30;5.80;;;19.20;99.10;;;;;;4902813;29;20528;-80
2021/06/17 04:03:00;;;;;;;6.77;6.20;;;19.20;99.00;;;;;;4902625;29;20505;-81
2021/06/17 04:05:27;;;;;;;6.30;5.70;;;19.30;99.00;;;;;;4902844;29;20515;-81
2021/06/17 04:07:58;;;;;;;6.07;5.57;;;19.30;99.00;;;;;;4904170;29;20503;-80
2021/06/17 04:10:25;;;;;;;7.00;6.50;;;19.30;98.80;;;;;;4906040;29;20462;-80
2021/06/17 04:12:57;;;;;;;7.90;5.40;;;19.40;98.80;;;;;;4905831;29;20450;-80
2021/06/17 04:15:25;;;;;;;6.60;6.00;;;19.40;99.00;;;;;;4905920;29;20455;-80
2021/06/17 04:17:55;;;;;;;6.80;6.20;;;19.50;99.20;;;;;;4905558;29;20441;-81
2021/06/17 04:20:25;;;;;;;8.17;7.57;;;19.50;99.20;;;;;;4903647;29;20464;-80
2021/06/17 04:22:53;;;;;;;6.80;6.23;;;19.50;99.30;;;;;;4904556;29;20474;-84
2021/06/17 04:25:21;;;;;;;6.70;6.10;;;19.50;99.30;;;;;;4898290;29;20560;-84
2021/06/17 04:27:51;;;;;;;6.30;5.83;;;19.60;99.60;;;;;;4890420;29;20939;-84
2021/06/17 04:30:20;;;;;;;6.23;5.70;;;19.60;99.70;;;;;;4890755;29;20476;-83
2021/06/17 04:32:50;;;;;;;7.93;7.53;;;19.60;99.80;;;;;;4890281;29;20460;-85
2021/06/17 04:35:19;;;;;;;6.80;6.20;;;19.70;99.90;;;;;;4888626;29;20884;-85
2021/06/17 04:37:46;;;;;;;6.00;5.60;;;19.70;99.60;;;;;;4890208;29;20456;-84
2021/06/17 04:40:15;;;;;;;6.80;6.20;;;19.70;99.50;;;;;;4889349;29;20484;-85
2021/06/17 04:42:42;;;;;;;6.10;5.67;;;19.80;99.70;;;;;;4891150;29;20483;-85
2021/06/17 04:45:10;;;;;;;7.53;6.80;;;19.80;99.20;;;;;;4896321;29;20471;-79
2021/06/17 04:47:41;;;;;;;7.70;7.00;;;19.80;98.80;;;;;;4890302;29;20456;-79
2021/06/17 04:50:09;;;;;;;7.30;6.60;;;19.90;98.70;;;;;;4888496;29;20545;-79
2021/06/17 04:52:42;;;;;;;6.63;5.33;;;20.00;98.80;;;;;;4888387;29;20455;-79
2021/06/17 04:55:09;;;;;;;6.80;6.30;;;20.10;98.40;;;;;;4886997;29;20446;-79
2021/06/17 04:57:36;;;;;;;6.47;5.77;;;20.10;97.90;;;;;;4885696;29;20461;-79
2021/06/17 05:00:04;;;;;;;8.53;7.73;;;20.20;97.70;;;;;;4884426;29;20477;-79
2021/06/17 05:02:33;;;;;;;6.03;5.53;;;20.30;97.70;;;;;;4883781;29;20465;-79
2021/06/17 05:05:01;;;;;;;6.63;6.03;;;20.30;97.50;;;;;;4891855;29;20461;-79
2021/06/17 05:07:49;;;;;;;6.60;5.00;;;20.40;97.50;;;;;;4891285;29;20459;-79
2021/06/17 05:13:01;;;;;;;6.53;6.03;;;20.60;96.20;;;;;;4892138;29;20938;-79
2021/06/17 05:15:27;;;;;;;6.23;5.47;;;20.70;95.90;;;;;;4893382;29;20545;-79
2021/06/17 05:17:54;;;;;;;7.50;5.30;;;20.70;96.00;;;;;;4892224;29;20484;-80
2021/06/17 05:20:26;;;;;;;6.20;5.70;;;20.80;96.10;;;;;;4889663;29;20478;-79
2021/06/17 05:22:53;;;;;;;6.77;5.70;;;20.90;96.40;;;;;;4889718;29;20490;-79
2021/06/17 05:25:19;;;;;;;6.57;5.30;;;21.00;96.50;;;;;;4893454;29;20468;-79
2021/06/17 05:27:46;;;;;;;5.80;5.30;;;21.10;96.10;;;;;;4892683;29;20501;-79
2021/06/17 05:30:13;;;;;;;7.30;5.87;;;21.20;96.00;;;;;;4890767;29;20508;-80
2021/06/17 05:32:41;;;;;;;7.00;5.70;;;21.20;96.10;;;;;;4886370;29;20458;-80
2021/06/17 05:35:10;;;;;;;6.13;5.53;;;21.30;95.90;;;;;;4885597;29;20467;-80
2021/06/17 05:37:38;;;;;;;6.67;6.17;;;21.40;95.40;;;;;;4884600;29;20451;-80
2021/06/17 05:40:06;;;;;;;6.87;6.17;;;21.50;95.50;;;;;;4884734;29;20489;-80
2021/06/17 05:42:33;;;;;;;5.87;5.37;;;21.50;95.70;;;;;;4884108;29;20815;-80
2021/06/17 05:45:00;;;;;;;5.47;5.00;;;21.70;95.60;;;;;;4884715;29;20474;-80
2021/06/17 05:47:27;;;;;;;6.97;6.17;;;21.70;96.00;;;;;;4884491;29;20462;-81
2021/06/17 05:49:53;;;;;;;9.47;5.60;;;21.80;95.70;;;;;;4884741;29;20513;-81
2021/06/17 05:52:20;;;;;;;9.27;5.80;;;21.90;95.60;;;;;;4884741;29;20474;-82
2021/06/17 05:54:48;;;;;;;6.33;5.73;;;21.90;95.50;;;;;;4886191;29;20546;-82
2021/06/17 05:57:15;;;;;;;11.33;5.50;;;22.00;95.70;;;;;;4885766;29;20463;-82
2021/06/17 05:59:41;;;;;;;12.50;6.63;;;22.10;95.60;;;;;;4884802;29;20479;-79
2021/06/17 06:02:10;;;;;;;7.23;6.60;;;22.20;95.70;;;;;;4884185;29;20462;-79
2021/06/17 06:04:37;;;;;;;6.77;6.07;;;22.20;95.50;;;;;;4884199;29;20489;-79
2021/06/17 06:07:04;;;;;;;6.80;6.30;;;22.30;95.40;;;;;;4884638;29;20468;-79
2021/06/17 06:09:31;;;;;;;7.13;6.27;;;22.40;95.30;;;;;;4884162;29;20498;-79
2021/06/17 06:11:59;;;;;;;5.70;5.23;;;22.50;95.10;;;;;;4882535;29;20458;-79
2021/06/17 06:14:28;;;;;;;6.57;5.80;;;22.50;95.00;;;;;;4883250;29;20460;-79
2021/06/17 06:16:55;;;;;;;7.30;6.40;;;22.60;95.00;;;;;;4883573;29;20468;-80
2021/06/17 06:19:21;;;;;;;9.00;6.00;;;22.70;95.00;;;;;;4883268;29;20455;-80
2021/06/17 06:21:48;;;;;;;7.83;5.70;;;22.80;94.90;;;;;;4883579;29;20487;-80
2021/06/17 06:24:15;;;;;;;10.10;6.10;;;22.80;94.50;;;;;;4883383;29;20489;-80
2021/06/17 06:26:42;;;;;;;7.73;5.97;;;22.90;94.40;;;;;;4883465;29;20947;-80
2021/06/17 06:29:10;;;;;;;11.50;6.30;;;23.00;94.60;;;;;;4883669;29;20493;-80
2021/06/17 06:31:37;;;;;;;7.83;5.70;;;23.10;94.60;;;;;;4882809;29;20472;-79
2021/06/17 06:34:04;;;;;;;11.40;6.47;;;23.20;94.50;;;;;;4883488;29;20456;-80
2021/06/17 06:36:31;;;;;;;8.27;6.90;;;23.30;94.50;;;;;;4882927;29;20467;-79
2021/06/17 06:38:57;;;;;;;6.37;5.77;;;23.30;94.70;;;;;;4879002;29;20449;-80
2021/06/17 06:41:24;;;;;;;20.13;6.70;;;23.50;95.00;;;;;;4872760;29;20476;-80
2021/06/17 06:43:51;;;;;;;10.50;7.40;;;23.50;94.50;;;;;;4872706;29;20452;-80
2021/06/17 06:46:20;;;;;;;7.63;5.93;;;23.60;94.70;;;;;;4874914;29;20527;-81
2021/06/17 06:48:46;;;;;;;6.07;5.60;;;23.70;94.40;;;;;;4874004;29;20516;-81
2021/06/17 06:51:13;;;;;;;9.77;6.27;;;23.80;93.00;;;;;;4872116;29;20530;-81
2021/06/17 06:53:40;;;;;;;6.63;6.10;;;23.80;93.30;;;;;;4872264;29;20449;-81
2021/06/17 06:56:07;;;;;;;5.37;4.60;;;23.90;93.10;;;;;;4872242;29;20457;-81
2021/06/17 06:58:33;;;;;;;5.33;4.93;;;23.90;92.30;;;;;;4869042;29;20918;-81
2021/06/17 07:01:00;;;;;;;6.00;5.37;;;24.00;91.70;;;;;;4872809;29;20479;-81
2021/06/17 07:03:28;;;;;;;5.97;5.47;;;24.10;91.20;;;;;;4863424;29;20805;-82
2021/06/17 07:05:59;;;;;;;5.67;5.17;;;24.20;91.40;;;;;;4862315;29;20458;-84
2021/06/17 07:08:35;;;;;;;;;;;;;;;;;;;;;
2021/06/17 07:36:37;;;;;;;6.43;4.03;;;25.60;77.20;;;;;;4654578;30;20610;-81
2021/06/17 07:39:18;;;;;;;5.13;4.70;;;25.70;78.00;;;;;;4718369;30;20472;-84
2021/06/17 07:41:45;;;;;;;4.27;3.97;;;25.80;77.90;;;;;;4801877;29;20464;-84
2021/06/17 11:07:17;;;;;;;6.83;6.10;;;33.50;56.60;;;;;;5868948;24;20419;-82
2021/06/17 11:10:04;;;;;;;6.13;5.63;;;33.90;56.20;;;;;;6028568;23;20516;-84
2021/06/17 11:12:59;;;;;;;7.03;6.43;;;34.40;53.50;;;;;;6071966;23;20404;-84
2021/06/17 11:19:02;;;;;;;6.60;6.20;;;35.40;51.50;;;;;;6064945;23;20440;-83
2021/06/17 11:25:14;;;;;;;8.00;6.40;;;36.80;52.50;;;;;;5933010;24;20442;-85
2021/06/17 11:31:40;;;;;;;6.40;5.90;;;37.80;48.10;;;;;;5116364;27;20528;-84
2021/06/17 11:34:51;;;;;;;;;;;;;;;;;;;;;
2021/06/17 11:59:17;;;;;;;6.37;5.87;;;41.10;39.00;;;;;;5066816;28;20488;-84
2021/06/17 13:04:20;;;;;;;6.53;6.03;;;46.50;29.90;;;;;;5411397;22;20497;-83
2021/06/17 13:34:41;;;;;;;5.60;5.20;;;46.80;27.80;;;;;;5430224;22;20542;-84
2021/06/17 15:36:46;;;;;;;;;;;;;;;;;;;;;
2021/06/17 16:20:36;;;;;;;5.13;4.83;;;43.50;27.00;;;;;;5752611;22;20553;-84
2021/06/17 16:57:18;;;;;;;;;;;;;;;;;;;;;
2021/06/17 18:09:17;;;;;;;6.67;6.17;;;34.30;42.70;;;;;;4827359;29;20451;-83
2021/06/17 18:22:15;;;;;;;6.67;6.27;;;34.00;44.10;;;;;;4886205;29;20459;-85
2021/06/17 18:56:51;;;;;;;;;;;;;;;;;;;;;
2021/06/17 20:18:28;;;;;;;7.10;6.60;;;27.70;53.60;;;;;;4855979;29;20493;-83
2021/06/17 21:36:33;;;;;;;9.80;8.40;;;25.60;66.10;;;;;;5065864;28;20448;-84
2021/06/17 21:39:04;;;;;;;7.40;6.80;;;25.60;66.20;;;;;;5089548;28;20458;-85
2021/06/17 21:48:15;;;;;;;6.93;6.07;;;25.40;66.70;;;;;;5016611;28;20446;-85
2021/06/17 21:51:29;;;;;;;;;;;;;;;;;;;;;
2021/06/17 22:01:34;;;;;;;;;;;;;;;;;;;;;
2021/06/17 22:04:01;;;;;;;9.87;9.10;;;25.30;69.60;;;;;;4921101;29;20567;-83
2021/06/17 22:06:31;;;;;;;8.20;7.60;;;25.20;70.20;;;;;;4974853;28;20456;-82
2021/06/17 22:08:59;;;;;;;8.43;7.50;;;25.10;70.90;;;;;;5069583;28;20434;-82
2021/06/17 22:11:26;;;;;;;8.53;7.93;;;25.00;71.70;;;;;;5089747;28;20514;-82
2021/06/17 22:13:52;;;;;;;8.70;8.10;;;24.90;71.90;;;;;;5088530;28;20449;-82
2021/06/17 22:16:20;;;;;;;8.27;7.67;;;24.80;72.10;;;;;;5091248;28;20450;-82
2021/06/17 22:18:47;;;;;;;8.47;7.87;;;24.70;72.40;;;;;;5093280;28;20847;-81
2021/06/17 22:21:13;;;;;;;8.50;7.80;;;24.70;72.60;;;;;;5091667;28;20961;-81
2021/06/17 22:23:41;;;;;;;8.50;7.83;;;24.70;72.70;;;;;;5091314;28;20455;-81
2021/06/17 22:26:09;;;;;;;8.63;7.90;;;24.60;72.80;;;;;;5088865;28;20440;-81
2021/06/17 22:28:35;;;;;;;8.43;7.70;;;24.60;72.70;;;;;;5088759;28;20445;-82
2021/06/17 22:31:02;;;;;;;8.17;7.47;;;24.50;72.60;;;;;;5090643;28;20962;-81
2021/06/17 22:33:29;;;;;;;9.07;7.70;;;24.50;73.30;;;;;;5098033;28;20451;-81
2021/06/17 22:35:56;;;;;;;10.60;8.37;;;24.40;75.00;;;;;;5100206;28;20511;-82
2021/06/17 22:38:23;;;;;;;8.70;7.90;;;24.40;76.10;;;;;;5100959;28;20433;-81
2021/06/17 22:40:52;;;;;;;8.50;7.90;;;24.30;77.20;;;;;;5100448;28;20982;-82
2021/06/17 22:43:20;;;;;;;8.67;7.97;;;24.30;78.20;;;;;;5099270;28;20453;-81
2021/06/17 22:45:46;;;;;;;7.43;6.83;;;24.20;78.70;;;;;;5099854;28;20494;-81
2021/06/17 22:48:13;;;;;;;8.97;8.27;;;24.20;79.10;;;;;;5100858;28;20447;-81
2021/06/17 22:50:40;;;;;;;8.00;7.40;;;24.10;79.50;;;;;;5099943;28;20491;-81
2021/06/17 22:53:07;;;;;;;8.07;7.53;;;24.00;80.20;;;;;;5100096;28;20439;-81
2021/06/17 22:55:33;;;;;;;9.00;8.40;;;24.00;81.50;;;;;;5100356;28;20450;-81
2021/06/17 22:58:00;;;;;;;8.30;7.70;;;24.00;82.10;;;;;;5099566;28;20446;-81
2021/06/17 23:00:28;;;;;;;8.37;7.70;;;23.80;82.60;;;;;;5100159;28;20463;-81
2021/06/17 23:03:05;;;;;;;7.80;7.20;;;23.80;83.00;;;;;;5099756;28;20451;-81
2021/06/17 23:05:32;;;;;;;8.13;7.43;;;23.70;83.30;;;;;;5099890;28;20459;-81
2021/06/17 23:07:59;;;;;;;9.17;8.07;;;23.70;83.90;;;;;;5099294;28;20450;-82
2021/06/17 23:10:26;;;;;;;8.47;7.87;;;23.60;84.40;;;;;;5099935;28;20487;-81
2021/06/17 23:12:55;;;;;;;8.97;8.23;;;23.50;85.10;;;;;;5099222;28;20458;-81
2021/06/17 23:15:23;;;;;;;9.17;8.47;;;23.50;85.70;;;;;;5098787;28;20453;-81
2021/06/17 23:17:51;;;;;;;9.43;8.70;;;23.40;86.20;;;;;;5100121;28;20511;-81
2021/06/17 23:20:18;;;;;;;10.03;8.50;;;23.30;86.40;;;;;;5099308;28;20999;-81
2021/06/17 23:22:45;;;;;;;8.40;7.70;;;23.30;87.10;;;;;;5099284;28;20478;-82
2021/06/17 23:25:13;;;;;;;8.00;7.30;;;23.30;87.20;;;;;;5099212;28;20458;-82
2021/06/17 23:27:40;;;;;;;8.67;7.87;;;23.20;87.50;;;;;;5099605;28;20960;-82
2021/06/17 23:30:08;;;;;;;8.60;7.90;;;23.20;88.40;;;;;;5099808;28;20983;-82
2021/06/17 23:32:35;;;;;;;10.13;9.33;;;23.20;88.70;;;;;;5099022;28;20437;-82
2021/06/17 23:35:04;;;;;;;8.53;7.93;;;23.10;88.60;;;;;;5099602;28;20443;-82
2021/06/17 23:37:31;;;;;;;8.57;7.53;;;23.10;89.90;;;;;;5099698;28;20446;-82
2021/06/17 23:39:58;;;;;;;8.60;7.90;;;23.00;89.50;;;;;;5099231;28;20472;-81
2021/06/17 23:42:25;;;;;;;9.87;9.13;;;23.00;90.10;;;;;;5098691;28;20513;-82
2021/06/17 23:44:54;;;;;;;9.63;8.50;;;23.00;90.50;;;;;;5099372;28;20434;-82
2021/06/17 23:47:21;;;;;;;9.93;9.20;;;23.00;91.00;;;;;;5099236;28;20446;-82
2021/06/17 23:49:48;;;;;;;8.70;8.10;;;22.90;91.10;;;;;;5098959;28;20479;-82
2021/06/17 23:52:16;;;;;;;11.37;10.10;;;22.90;91.40;;;;;;5098407;28;20489;-81
2021/06/17 23:54:44;;;;;;;10.13;9.33;;;22.90;91.50;;;;;;5099111;28;20798;-82
2021/06/17 23:57:13;;;;;;;8.63;7.90;;;22.80;91.80;;;;;;5098794;28;20940;-82
2021/06/17 23:59:40;;;;;;;8.20;7.53;;;22.80;91.90;;;;;;5098743;28;20501;-82
